sensor_id;sensor_type;location;lat;lon;timestamp;temperature;humidity
45729;DHT22;31439;53.512;10.206;2023-07-29T00:01:34;19.20;99.90
45729;DHT22;31439;53.512;10.206;2023-07-29T00:04:00;19.20;99.90
45729;DHT22;31439;53.512;10.206;2023-07-29T00:06:26;19.20;99.90
45729;DHT22;31439;53.512;10.206;2023-07-29T00:08:52;19.20;99.90
45729;DHT22;31439;53.512;10.206;2023-07-29T00:11:17;19.20;99.90
45729;DHT22;31439;53.512;10.206;2023-07-29T00:13:43;19.20;99.90
45729;DHT22;31439;53.512;10.206;2023-07-29T00:16:09;19.10;99.90
45729;DHT22;31439;53.512;10.206;2023-07-29T00:18:35;19.10;99.90
45729;DHT22;31439;53.512;10.206;2023-07-29T00:21:01;19.10;99.90
45729;DHT22;31439;53.512;10.206;2023-07-29T00:23:27;19.10;99.90
45729;DHT22;31439;53.512;10.206;2023-07-29T00:25:52;19.00;99.90
45729;DHT22;31439;53.512;10.206;2023-07-29T00:28:18;19.00;99.90
45729;DHT22;31439;53.512;10.206;2023-07-29T00:30:43;19.00;99.90
45729;DHT22;31439;53.512;10.206;2023-07-29T00:33:09;19.00;99.90
45729;DHT22;31439;53.512;10.206;2023-07-29T00:35:35;19.00;99.90
45729;DHT22;31439;53.512;10.206;2023-07-29T00:38:00;18.90;99.90
45729;DHT22;31439;53.512;10.206;2023-07-29T00:40:28;18.90;99.90
45729;DHT22;31439;53.512;10.206;2023-07-29T00:42:54;18.80;99.90
45729;DHT22;31439;53.512;10.206;2023-07-29T00:45:20;18.80;99.90
45729;DHT22;31439;53.512;10.206;2023-07-29T00:47:46;18.80;99.90
45729;DHT22;31439;53.512;10.206;2023-07-29T00:50:13;18.80;99.90
45729;DHT22;31439;53.512;10.206;2023-07-29T00:52:39;18.80;99.90
45729;DHT22;31439;53.512;10.206;2023-07-29T00:55:05;18.80;99.90
45729;DHT22;31439;53.512;10.206;2023-07-29T00:57:33;18.80;99.90
45729;DHT22;31439;53.512;10.206;2023-07-29T00:59:59;18.80;99.90
45729;DHT22;31439;53.512;10.206;2023-07-29T01:02:26;18.80;99.90
45729;DHT22;31439;53.512;10.206;2023-07-29T01:04:53;18.80;99.90
45729;DHT22;31439;53.512;10.206;2023-07-29T01:08:25;18.80;99.90
45729;DHT22;31439;53.512;10.206;2023-07-29T01:13:19;18.80;99.90
45729;DHT22;31439;53.512;10.206;2023-07-29T01:18:23;18.80;99.90
45729;DHT22;31439;53.512;10.206;2023-07-29T01:20:53;18.80;99.90
45729;DHT22;31439;53.512;10.206;2023-07-29T01:25:51;18.80;99.90
45729;DHT22;31439;53.512;10.206;2023-07-29T01:57:50;18.80;99.90
45729;DHT22;31439;53.512;10.206;2023-07-29T02:00:18;18.70;99.90
45729;DHT22;31439;53.512;10.206;2023-07-29T02:02:43;18.70;99.90
45729;DHT22;31439;53.512;10.206;2023-07-29T08:40:27;18.60;99.90
45729;DHT22;31439;53.512;10.206;2023-07-29T08:42:57;20.20;99.90
45729;DHT22;31439;53.512;10.206;2023-07-29T08:45:24;20.20;99.90
45729;DHT22;31439;53.512;10.206;2023-07-29T08:47:54;20.20;99.90
45729;DHT22;31439;53.512;10.206;2023-07-29T08:50:22;20.20;99.90
45729;DHT22;31439;53.512;10.206;2023-07-29T08:52:51;20.20;99.90
45729;DHT22;31439;53.512;10.206;2023-07-29T08:55:17;20.30;99.90
45729;DHT22;31439;53.512;10.206;2023-07-29T08:57:42;20.30;99.90
45729;DHT22;31439;53.512;10.206;2023-07-29T09:00:08;20.40;99.90
45729;DHT22;31439;53.512;10.206;2023-07-29T09:02:34;20.40;99.90
45729;DHT22;31439;53.512;10.206;2023-07-29T09:05:01;20.50;99.90
45729;DHT22;31439;53.512;10.206;2023-07-29T09:07:27;20.50;99.90
45729;DHT22;31439;53.512;10.206;2023-07-29T09:09:54;20.50;99.90
45729;DHT22;31439;53.512;10.206;2023-07-29T09:12:19;20.60;99.90
45729;DHT22;31439;53.512;10.206;2023-07-29T09:14:45;20.60;99.90
45729;DHT22;31439;53.512;10.206;2023-07-29T09:17:11;20.60;99.90
45729;DHT22;31439;53.512;10.206;2023-07-29T09:19:37;20.60;99.90
45729;DHT22;31439;53.512;10.206;2023-07-29T09:22:02;20.70;99.90
45729;DHT22;31439;53.512;10.206;2023-07-29T09:24:28;20.70;99.90
45729;DHT22;31439;53.512;10.206;2023-07-29T09:26:57;20.70;99.90
45729;DHT22;31439;53.512;10.206;2023-07-29T09:29:23;20.80;99.90
45729;DHT22;31439;53.512;10.206;2023-07-29T09:31:49;20.80;99.90
45729;DHT22;31439;53.512;10.206;2023-07-29T09:34:15;20.80;99.90
45729;DHT22;31439;53.512;10.206;2023-07-29T09:36:43;20.80;99.90
45729;DHT22;31439;53.512;10.206;2023-07-29T09:39:12;20.90;99.90
45729;DHT22;31439;53.512;10.206;2023-07-29T09:41:40;21.00;99.90
45729;DHT22;31439;53.512;10.206;2023-07-29T09:44:07;21.00;99.90
45729;DHT22;31439;53.512;10.206;2023-07-29T09:46:36;21.10;99.90
45729;DHT22;31439;53.512;10.206;2023-07-29T09:49:03;21.10;99.90
45729;DHT22;31439;53.512;10.206;2023-07-29T09:51:29;21.10;99.90
45729;DHT22;31439;53.512;10.206;2023-07-29T09:53:55;21.20;99.90
45729;DHT22;31439;53.512;10.206;2023-07-29T09:56:25;21.20;99.90
45729;DHT22;31439;53.512;10.206;2023-07-29T09:58:52;21.30;99.90
45729;DHT22;31439;53.512;10.206;2023-07-29T10:01:17;21.30;99.90
45729;DHT22;31439;53.512;10.206;2023-07-29T10:03:44;21.30;99.90
45729;DHT22;31439;53.512;10.206;2023-07-29T10:06:11;21.20;99.90
45729;DHT22;31439;53.512;10.206;2023-07-29T10:08:36;21.20;99.90
45729;DHT22;31439;53.512;10.206;2023-07-29T10:11:05;21.10;99.90
45729;DHT22;31439;53.512;10.206;2023-07-29T10:13:32;21.20;99.90
45729;DHT22;31439;53.512;10.206;2023-07-29T10:15:59;21.20;99.90
45729;DHT22;31439;53.512;10.206;2023-07-29T10:18:28;21.30;99.90
45729;DHT22;31439;53.512;10.206;2023-07-29T10:20:54;21.30;99.90
45729;DHT22;31439;53.512;10.206;2023-07-29T10:23:22;21.30;99.90
45729;DHT22;31439;53.512;10.206;2023-07-29T10:26:03;21.40;99.90
45729;DHT22;31439;53.512;10.206;2023-07-29T10:28:30;21.60;99.90
45729;DHT22;31439;53.512;10.206;2023-07-29T10:30:57;21.70;99.90
45729;DHT22;31439;53.512;10.206;2023-07-29T10:33:23;21.80;99.90
45729;DHT22;31439;53.512;10.206;2023-07-29T10:35:49;21.80;99.90
45729;DHT22;31439;53.512;10.206;2023-07-29T10:38:16;21.80;99.90
45729;DHT22;31439;53.512;10.206;2023-07-29T10:40:53;22.20;99.90
45729;DHT22;31439;53.512;10.206;2023-07-29T10:45:51;21.80;99.90
45729;DHT22;31439;53.512;10.206;2023-07-29T10:51:22;21.90;99.90
45729;DHT22;31439;53.512;10.206;2023-07-29T10:56:56;21.90;99.90
45729;DHT22;31439;53.512;10.206;2023-07-29T10:59:32;21.80;99.90
45729;DHT22;31439;53.512;10.206;2023-07-29T11:02:00;21.90;99.90
45729;DHT22;31439;53.512;10.206;2023-07-29T11:04:30;22.00;99.90
45729;DHT22;31439;53.512;10.206;2023-07-29T11:07:18;22.10;99.90
45729;DHT22;31439;53.512;10.206;2023-07-29T11:22:45;21.80;99.90
45729;DHT22;31439;53.512;10.206;2023-07-29T11:25:12;21.90;99.90
45729;DHT22;31439;53.512;10.206;2023-07-29T11:27:39;21.80;99.90
45729;DHT22;31439;53.512;10.206;2023-07-29T11:30:06;21.90;99.90
45729;DHT22;31439;53.512;10.206;2023-07-29T11:32:34;22.10;99.90
45729;DHT22;31439;53.512;10.206;2023-07-29T11:35:17;22.30;99.90
45729;DHT22;31439;53.512;10.206;2023-07-29T11:37:45;22.30;99.90
45729;DHT22;31439;53.512;10.206;2023-07-29T11:40:15;22.30;99.90
45729;DHT22;31439;53.512;10.206;2023-07-29T11:42:41;22.40;99.90
45729;DHT22;31439;53.512;10.206;2023-07-29T11:45:07;22.60;99.90
45729;DHT22;31439;53.512;10.206;2023-07-29T11:47:34;22.70;99.90
45729;DHT22;31439;53.512;10.206;2023-07-29T11:50:08;22.90;99.90
45729;DHT22;31439;53.512;10.206;2023-07-29T11:52:41;23.20;99.90
45729;DHT22;31439;53.512;10.206;2023-07-29T11:55:08;23.40;99.90
45729;DHT22;31439;53.512;10.206;2023-07-29T12:07:55;22.80;99.90
45729;DHT22;31439;53.512;10.206;2023-07-29T12:10:21;22.70;99.90
45729;DHT22;31439;53.512;10.206;2023-07-29T12:12:48;22.40;99.90
45729;DHT22;31439;53.512;10.206;2023-07-29T12:15:25;22.30;99.90
45729;DHT22;31439;53.512;10.206;2023-07-29T12:17:56;22.20;99.90
45729;DHT22;31439;53.512;10.206;2023-07-29T12:20:22;22.20;99.90
45729;DHT22;31439;53.512;10.206;2023-07-29T12:23:00;22.20;99.90
45729;DHT22;31439;53.512;10.206;2023-07-29T12:25:28;22.30;99.90
45729;DHT22;31439;53.512;10.206;2023-07-29T12:27:54;22.40;99.90
45729;DHT22;31439;53.512;10.206;2023-07-29T12:30:21;22.70;99.90
45729;DHT22;31439;53.512;10.206;2023-07-29T12:32:47;22.90;99.90
45729;DHT22;31439;53.512;10.206;2023-07-29T12:35:16;23.20;99.90
45729;DHT22;31439;53.512;10.206;2023-07-29T12:48:06;24.30;99.90
45729;DHT22;31439;53.512;10.206;2023-07-29T12:50:32;24.20;99.90
45729;DHT22;31439;53.512;10.206;2023-07-29T12:52:57;24.10;99.90
45729;DHT22;31439;53.512;10.206;2023-07-29T12:55:23;24.30;99.90
45729;DHT22;31439;53.512;10.206;2023-07-29T12:57:50;24.30;99.90
45729;DHT22;31439;53.512;10.206;2023-07-29T13:00:15;24.30;99.90
45729;DHT22;31439;53.512;10.206;2023-07-29T13:02:41;24.00;99.90
45729;DHT22;31439;53.512;10.206;2023-07-29T13:05:10;23.80;99.90
45729;DHT22;31439;53.512;10.206;2023-07-29T13:07:42;23.80;99.90
45729;DHT22;31439;53.512;10.206;2023-07-29T13:10:09;23.90;99.90
45729;DHT22;31439;53.512;10.206;2023-07-29T13:12:34;23.90;99.90
45729;DHT22;31439;53.512;10.206;2023-07-29T13:15:00;23.80;99.90
45729;DHT22;31439;53.512;10.206;2023-07-29T13:17:26;24.00;99.90
45729;DHT22;31439;53.512;10.206;2023-07-29T13:19:51;24.10;99.90
45729;DHT22;31439;53.512;10.206;2023-07-29T13:22:17;24.40;99.90
45729;DHT22;31439;53.512;10.206;2023-07-29T13:24:43;24.50;99.90
45729;DHT22;31439;53.512;10.206;2023-07-29T13:27:08;24.50;99.90
45729;DHT22;31439;53.512;10.206;2023-07-29T13:29:34;24.50;99.90
45729;DHT22;31439;53.512;10.206;2023-07-29T13:31:59;24.50;99.90
45729;DHT22;31439;53.512;10.206;2023-07-29T13:34:25;24.50;99.90
45729;DHT22;31439;53.512;10.206;2023-07-29T13:36:51;24.20;99.90
45729;DHT22;31439;53.512;10.206;2023-07-29T13:39:16;24.10;99.90
45729;DHT22;31439;53.512;10.206;2023-07-29T13:41:42;23.80;99.90
45729;DHT22;31439;53.512;10.206;2023-07-29T13:44:07;23.70;99.90
45729;DHT22;31439;53.512;10.206;2023-07-29T13:46:33;23.70;99.90
45729;DHT22;31439;53.512;10.206;2023-07-29T13:48:58;23.70;99.90
45729;DHT22;31439;53.512;10.206;2023-07-29T13:51:24;23.50;99.90
45729;DHT22;31439;53.512;10.206;2023-07-29T13:53:50;23.70;99.90
45729;DHT22;31439;53.512;10.206;2023-07-29T13:56:15;23.70;99.90
45729;DHT22;31439;53.512;10.206;2023-07-29T13:58:41;23.60;99.90
45729;DHT22;31439;53.512;10.206;2023-07-29T14:01:06;23.60;99.90
45729;DHT22;31439;53.512;10.206;2023-07-29T14:03:32;23.50;99.90
45729;DHT22;31439;53.512;10.206;2023-07-29T14:05:57;23.50;99.90
45729;DHT22;31439;53.512;10.206;2023-07-29T14:08:23;23.30;99.90
45729;DHT22;31439;53.512;10.206;2023-07-29T14:10:49;23.30;99.90
45729;DHT22;31439;53.512;10.206;2023-07-29T14:13:15;23.40;99.90
45729;DHT22;31439;53.512;10.206;2023-07-29T14:15:41;23.20;99.90
45729;DHT22;31439;53.512;10.206;2023-07-29T14:18:06;23.20;99.90
45729;DHT22;31439;53.512;10.206;2023-07-29T14:20:32;23.10;99.90
45729;DHT22;31439;53.512;10.206;2023-07-29T14:22:58;23.10;99.90
45729;DHT22;31439;53.512;10.206;2023-07-29T14:25:24;23.00;99.90
45729;DHT22;31439;53.512;10.206;2023-07-29T14:27:50;23.20;99.90
45729;DHT22;31439;53.512;10.206;2023-07-29T14:30:16;23.30;99.90
45729;DHT22;31439;53.512;10.206;2023-07-29T14:32:41;23.50;99.90
45729;DHT22;31439;53.512;10.206;2023-07-29T14:35:07;23.50;99.90
45729;DHT22;31439;53.512;10.206;2023-07-29T14:37:34;23.50;99.90
45729;DHT22;31439;53.512;10.206;2023-07-29T14:39:59;23.40;99.90
45729;DHT22;31439;53.512;10.206;2023-07-29T14:42:26;23.50;99.90
45729;DHT22;31439;53.512;10.206;2023-07-29T14:44:57;23.40;99.90
45729;DHT22;31439;53.512;10.206;2023-07-29T14:47:23;23.30;99.90
45729;DHT22;31439;53.512;10.206;2023-07-29T14:49:53;23.40;99.90
45729;DHT22;31439;53.512;10.206;2023-07-29T14:52:40;23.40;99.90
45729;DHT22;31439;53.512;10.206;2023-07-29T14:55:06;23.40;99.90
45729;DHT22;31439;53.512;10.206;2023-07-29T14:57:39;23.40;99.90
45729;DHT22;31439;53.512;10.206;2023-07-29T15:00:22;23.40;99.90
45729;DHT22;31439;53.512;10.206;2023-07-29T15:02:48;23.40;99.90
45729;DHT22;31439;53.512;10.206;2023-07-29T15:05:14;23.50;99.90
45729;DHT22;31439;53.512;10.206;2023-07-29T15:10:14;23.70;99.90
45729;DHT22;31439;53.512;10.206;2023-07-29T15:16:42;23.60;99.90
45729;DHT22;31439;53.512;10.206;2023-07-29T15:19:07;23.60;99.90
45729;DHT22;31439;53.512;10.206;2023-07-29T15:21:34;23.70;99.90
45729;DHT22;31439;53.512;10.206;2023-07-29T15:23:59;23.70;99.90
45729;DHT22;31439;53.512;10.206;2023-07-29T15:29:46;23.80;99.90
45729;DHT22;31439;53.512;10.206;2023-07-29T15:32:12;23.80;99.90
45729;DHT22;31439;53.512;10.206;2023-07-29T15:37:59;23.80;99.90
45729;DHT22;31439;53.512;10.206;2023-07-29T15:40:30;23.80;99.90
45729;DHT22;31439;53.512;10.206;2023-07-29T16:03:34;23.80;99.90
45729;DHT22;31439;53.512;10.206;2023-07-29T16:05:59;23.90;99.90
45729;DHT22;31439;53.512;10.206;2023-07-29T16:08:37;23.90;99.90
45729;DHT22;31439;53.512;10.206;2023-07-29T16:11:03;23.70;99.90
45729;DHT22;31439;53.512;10.206;2023-07-29T16:13:29;23.60;99.90
45729;DHT22;31439;53.512;10.206;2023-07-29T16:15:54;23.40;99.90
45729;DHT22;31439;53.512;10.206;2023-07-29T16:18:24;23.40;99.90
45729;DHT22;31439;53.512;10.206;2023-07-29T16:20:50;23.30;99.90
45729;DHT22;31439;53.512;10.206;2023-07-29T16:23:16;23.20;99.90
45729;DHT22;31439;53.512;10.206;2023-07-29T16:25:42;23.10;99.90
45729;DHT22;31439;53.512;10.206;2023-07-29T16:28:08;23.00;99.90
45729;DHT22;31439;53.512;10.206;2023-07-29T16:30:34;22.90;99.90
45729;DHT22;31439;53.512;10.206;2023-07-29T16:32:59;22.80;99.90
45729;DHT22;31439;53.512;10.206;2023-07-29T16:35:25;22.80;99.90
45729;DHT22;31439;53.512;10.206;2023-07-29T16:37:50;22.50;99.90
45729;DHT22;31439;53.512;10.206;2023-07-29T16:40:17;22.20;99.90
45729;DHT22;31439;53.512;10.206;2023-07-29T16:42:42;21.90;99.90
45729;DHT22;31439;53.512;10.206;2023-07-29T16:45:09;21.70;99.90
45729;DHT22;31439;53.512;10.206;2023-07-29T16:47:34;21.40;99.90
45729;DHT22;31439;53.512;10.206;2023-07-29T16:50:00;21.20;99.90
45729;DHT22;31439;53.512;10.206;2023-07-29T16:52:26;21.00;99.90
45729;DHT22;31439;53.512;10.206;2023-07-29T16:54:52;20.70;99.90
45729;DHT22;31439;53.512;10.206;2023-07-29T16:57:17;20.60;99.90
45729;DHT22;31439;53.512;10.206;2023-07-29T16:59:43;20.40;99.90
45729;DHT22;31439;53.512;10.206;2023-07-29T17:02:08;20.30;99.90
45729;DHT22;31439;53.512;10.206;2023-07-29T17:04:34;20.30;99.90
45729;DHT22;31439;53.512;10.206;2023-07-29T17:07:00;20.20;99.90
45729;DHT22;31439;53.512;10.206;2023-07-29T17:09:25;20.10;99.90
45729;DHT22;31439;53.512;10.206;2023-07-29T17:11:51;20.00;99.90
45729;DHT22;31439;53.512;10.206;2023-07-29T17:14:16;20.00;99.90
45729;DHT22;31439;53.512;10.206;2023-07-29T17:16:44;19.90;99.90
45729;DHT22;31439;53.512;10.206;2023-07-29T17:19:10;19.80;99.90
45729;DHT22;31439;53.512;10.206;2023-07-29T17:21:35;20.00;99.90
45729;DHT22;31439;53.512;10.206;2023-07-29T17:24:01;20.10;99.90
45729;DHT22;31439;53.512;10.206;2023-07-29T17:26:27;20.10;99.90
45729;DHT22;31439;53.512;10.206;2023-07-29T17:28:52;20.20;99.90
45729;DHT22;31439;53.512;10.206;2023-07-29T17:31:18;20.20;99.90
45729;DHT22;31439;53.512;10.206;2023-07-29T17:33:44;20.50;99.90
45729;DHT22;31439;53.512;10.206;2023-07-29T17:36:09;20.10;99.90
45729;DHT22;31439;53.512;10.206;2023-07-29T17:38:35;20.10;99.90
45729;DHT22;31439;53.512;10.206;2023-07-29T17:41:00;20.00;99.90
45729;DHT22;31439;53.512;10.206;2023-07-29T17:43:28;19.90;99.90
45729;DHT22;31439;53.512;10.206;2023-07-29T17:45:54;19.90;99.90
45729;DHT22;31439;53.512;10.206;2023-07-29T17:48:20;19.90;99.90
45729;DHT22;31439;53.512;10.206;2023-07-29T17:50:46;19.80;99.90
45729;DHT22;31439;53.512;10.206;2023-07-29T17:53:15;19.70;99.90
45729;DHT22;31439;53.512;10.206;2023-07-29T17:55:41;19.90;99.90
45729;DHT22;31439;53.512;10.206;2023-07-29T17:58:06;19.60;99.90
45729;DHT22;31439;53.512;10.206;2023-07-29T18:00:32;19.60;99.90
45729;DHT22;31439;53.512;10.206;2023-07-29T18:02:59;19.50;99.90
45729;DHT22;31439;53.512;10.206;2023-07-29T18:05:24;19.50;99.90
45729;DHT22;31439;53.512;10.206;2023-07-29T18:07:50;19.40;99.90
45729;DHT22;31439;53.512;10.206;2023-07-29T18:10:16;19.30;99.90
45729;DHT22;31439;53.512;10.206;2023-07-29T18:12:41;19.30;99.90
45729;DHT22;31439;53.512;10.206;2023-07-29T18:15:08;19.30;99.90
45729;DHT22;31439;53.512;10.206;2023-07-29T18:17:34;19.30;99.90
45729;DHT22;31439;53.512;10.206;2023-07-29T18:20:00;19.30;99.90
45729;DHT22;31439;53.512;10.206;2023-07-29T18:22:26;19.40;99.90
45729;DHT22;31439;53.512;10.206;2023-07-29T18:24:52;19.40;99.90
45729;DHT22;31439;53.512;10.206;2023-07-29T18:27:18;19.40;99.90
45729;DHT22;31439;53.512;10.206;2023-07-29T18:29:43;19.40;99.90
45729;DHT22;31439;53.512;10.206;2023-07-29T18:32:09;19.40;99.90
45729;DHT22;31439;53.512;10.206;2023-07-29T18:34:35;19.40;99.90
45729;DHT22;31439;53.512;10.206;2023-07-29T18:37:00;19.40;99.90
45729;DHT22;31439;53.512;10.206;2023-07-29T18:39:26;19.30;99.90
45729;DHT22;31439;53.512;10.206;2023-07-29T18:41:52;19.30;99.90
45729;DHT22;31439;53.512;10.206;2023-07-29T18:44:18;19.30;99.90
45729;DHT22;31439;53.512;10.206;2023-07-29T18:46:43;19.20;99.90
45729;DHT22;31439;53.512;10.206;2023-07-29T18:49:09;19.30;99.90
45729;DHT22;31439;53.512;10.206;2023-07-29T18:51:34;19.20;99.90
45729;DHT22;31439;53.512;10.206;2023-07-29T18:54:02;19.20;99.90
45729;DHT22;31439;53.512;10.206;2023-07-29T18:56:28;19.10;99.90
45729;DHT22;31439;53.512;10.206;2023-07-29T18:58:54;19.10;99.90
45729;DHT22;31439;53.512;10.206;2023-07-29T19:01:19;19.10;99.90
45729;DHT22;31439;53.512;10.206;2023-07-29T19:03:47;19.10;99.90
45729;DHT22;31439;53.512;10.206;2023-07-29T19:06:13;19.10;99.90
45729;DHT22;31439;53.512;10.206;2023-07-29T19:08:39;19.20;99.90
45729;DHT22;31439;53.512;10.206;2023-07-29T19:11:05;19.10;99.90
45729;DHT22;31439;53.512;10.206;2023-07-29T19:13:31;19.10;99.90
45729;DHT22;31439;53.512;10.206;2023-07-29T19:15:56;19.00;99.90
45729;DHT22;31439;53.512;10.206;2023-07-29T19:18:23;19.00;99.90
45729;DHT22;31439;53.512;10.206;2023-07-29T19:20:53;19.00;99.90
45729;DHT22;31439;53.512;10.206;2023-07-29T19:23:21;19.00;99.90
45729;DHT22;31439;53.512;10.206;2023-07-29T19:25:48;18.90;99.90
45729;DHT22;31439;53.512;10.206;2023-07-29T19:28:14;18.90;99.90
45729;DHT22;31439;53.512;10.206;2023-07-29T19:30:40;18.90;99.90
45729;DHT22;31439;53.512;10.206;2023-07-29T19:33:05;18.90;99.90
45729;DHT22;31439;53.512;10.206;2023-07-29T19:35:31;18.80;99.90
45729;DHT22;31439;53.512;10.206;2023-07-29T19:37:57;18.80;99.90
45729;DHT22;31439;53.512;10.206;2023-07-29T19:40:22;18.80;99.90
45729;DHT22;31439;53.512;10.206;2023-07-29T19:42:52;18.80;99.90
45729;DHT22;31439;53.512;10.206;2023-07-29T19:45:21;18.70;99.90
45729;DHT22;31439;53.512;10.206;2023-07-29T19:47:47;18.70;99.90
45729;DHT22;31439;53.512;10.206;2023-07-29T19:50:13;18.60;99.90
45729;DHT22;31439;53.512;10.206;2023-07-29T19:52:39;18.60;99.90
45729;DHT22;31439;53.512;10.206;2023-07-29T19:55:05;18.60;99.90
45729;DHT22;31439;53.512;10.206;2023-07-29T19:57:31;18.60;99.90
45729;DHT22;31439;53.512;10.206;2023-07-29T19:59:56;18.60;99.90
45729;DHT22;31439;53.512;10.206;2023-07-29T20:02:22;18.60;99.90
45729;DHT22;31439;53.512;10.206;2023-07-29T20:05:49;18.60;99.90
45729;DHT22;31439;53.512;10.206;2023-07-29T20:08:03;18.50;99.90
45729;DHT22;31439;53.512;10.206;2023-07-29T20:10:29;18.50;99.90
45729;DHT22;31439;53.512;10.206;2023-07-29T20:12:54;18.60;99.90
45729;DHT22;31439;53.512;10.206;2023-07-29T20:15:20;18.50;99.90
45729;DHT22;31439;53.512;10.206;2023-07-29T20:17:46;18.50;99.90
45729;DHT22;31439;53.512;10.206;2023-07-29T20:20:11;18.50;99.90
45729;DHT22;31439;53.512;10.206;2023-07-29T20:22:55;18.40;99.90
45729;DHT22;31439;53.512;10.206;2023-07-29T20:25:21;18.50;99.90
45729;DHT22;31439;53.512;10.206;2023-07-29T20:27:47;18.40;99.90
45729;DHT22;31439;53.512;10.206;2023-07-29T20:30:12;18.40;99.90
45729;DHT22;31439;53.512;10.206;2023-07-29T20:32:38;18.40;99.90
45729;DHT22;31439;53.512;10.206;2023-07-29T20:35:04;18.30;99.90
45729;DHT22;31439;53.512;10.206;2023-07-29T20:37:30;18.20;99.90
45729;DHT22;31439;53.512;10.206;2023-07-29T20:39:56;18.30;99.90
45729;DHT22;31439;53.512;10.206;2023-07-29T20:42:21;18.30;99.90
45729;DHT22;31439;53.512;10.206;2023-07-29T20:44:47;18.20;99.90
45729;DHT22;31439;53.512;10.206;2023-07-29T20:47:12;18.20;99.90
45729;DHT22;31439;53.512;10.206;2023-07-29T20:49:38;18.20;99.90
45729;DHT22;31439;53.512;10.206;2023-07-29T20:52:04;18.10;99.90
45729;DHT22;31439;53.512;10.206;2023-07-29T20:54:30;18.10;99.90
45729;DHT22;31439;53.512;10.206;2023-07-29T20:56:55;18.10;99.90
45729;DHT22;31439;53.512;10.206;2023-07-29T20:59:21;18.20;99.90
45729;DHT22;31439;53.512;10.206;2023-07-29T21:01:47;18.10;99.90
45729;DHT22;31439;53.512;10.206;2023-07-29T21:04:12;18.10;99.90
45729;DHT22;31439;53.512;10.206;2023-07-29T21:06:38;18.10;99.90
45729;DHT22;31439;53.512;10.206;2023-07-29T21:09:03;18.00;99.90
45729;DHT22;31439;53.512;10.206;2023-07-29T21:11:32;18.10;99.90
45729;DHT22;31439;53.512;10.206;2023-07-29T21:13:57;18.10;99.90
45729;DHT22;31439;53.512;10.206;2023-07-29T21:16:23;18.10;99.90
45729;DHT22;31439;53.512;10.206;2023-07-29T21:18:48;18.10;99.90
45729;DHT22;31439;53.512;10.206;2023-07-29T21:21:15;18.10;99.90
45729;DHT22;31439;53.512;10.206;2023-07-29T21:23:41;18.00;99.90
45729;DHT22;31439;53.512;10.206;2023-07-29T21:26:06;18.00;99.90
45729;DHT22;31439;53.512;10.206;2023-07-29T21:28:32;18.00;99.90
45729;DHT22;31439;53.512;10.206;2023-07-29T21:30:58;18.00;99.90
45729;DHT22;31439;53.512;10.206;2023-07-29T21:33:24;18.00;99.90
45729;DHT22;31439;53.512;10.206;2023-07-29T21:35:49;18.00;99.90
45729;DHT22;31439;53.512;10.206;2023-07-29T21:38:15;18.00;99.90
45729;DHT22;31439;53.512;10.206;2023-07-29T21:40:41;18.00;99.90
45729;DHT22;31439;53.512;10.206;2023-07-29T21:43:07;18.00;99.90
45729;DHT22;31439;53.512;10.206;2023-07-29T21:45:32;18.00;99.90
45729;DHT22;31439;53.512;10.206;2023-07-29T21:47:58;17.90;99.90
45729;DHT22;31439;53.512;10.206;2023-07-29T21:50:23;17.90;99.90
45729;DHT22;31439;53.512;10.206;2023-07-29T21:52:49;17.80;99.90
45729;DHT22;31439;53.512;10.206;2023-07-29T21:55:15;17.80;99.90
45729;DHT22;31439;53.512;10.206;2023-07-29T21:57:40;17.80;99.90
45729;DHT22;31439;53.512;10.206;2023-07-29T22:00:06;17.90;99.90
45729;DHT22;31439;53.512;10.206;2023-07-29T22:02:34;17.80;99.90
45729;DHT22;31439;53.512;10.206;2023-07-29T22:04:59;17.90;99.90
45729;DHT22;31439;53.512;10.206;2023-07-29T22:07:25;17.80;99.90
45729;DHT22;31439;53.512;10.206;2023-07-29T22:09:50;17.80;99.90
45729;DHT22;31439;53.512;10.206;2023-07-29T22:12:16;17.80;99.90
45729;DHT22;31439;53.512;10.206;2023-07-29T22:14:43;17.70;99.90
45729;DHT22;31439;53.512;10.206;2023-07-29T22:17:09;17.70;99.90
45729;DHT22;31439;53.512;10.206;2023-07-29T22:19:35;17.70;99.90
45729;DHT22;31439;53.512;10.206;2023-07-29T22:22:02;17.70;99.90
45729;DHT22;31439;53.512;10.206;2023-07-29T22:24:27;17.70;99.90
45729;DHT22;31439;53.512;10.206;2023-07-29T22:26:53;17.70;99.90
45729;DHT22;31439;53.512;10.206;2023-07-29T22:29:18;17.70;99.90
45729;DHT22;31439;53.512;10.206;2023-07-29T22:31:44;17.70;99.90
45729;DHT22;31439;53.512;10.206;2023-07-29T22:34:11;17.60;99.90
45729;DHT22;31439;53.512;10.206;2023-07-29T22:36:36;17.60;99.90
45729;DHT22;31439;53.512;10.206;2023-07-29T22:39:02;17.50;99.90
45729;DHT22;31439;53.512;10.206;2023-07-29T22:41:28;17.50;99.90
45729;DHT22;31439;53.512;10.206;2023-07-29T22:43:53;17.50;99.90
45729;DHT22;31439;53.512;10.206;2023-07-29T22:46:19;17.50;99.90
45729;DHT22;31439;53.512;10.206;2023-07-29T22:48:44;17.50;99.90
45729;DHT22;31439;53.512;10.206;2023-07-29T22:51:10;17.50;99.90
45729;DHT22;31439;53.512;10.206;2023-07-29T22:53:36;17.40;99.90
45729;DHT22;31439;53.512;10.206;2023-07-29T22:56:01;17.50;99.90
45729;DHT22;31439;53.512;10.206;2023-07-29T22:58:27;17.50;99.90
45729;DHT22;31439;53.512;10.206;2023-07-29T23:00:54;17.40;99.90
45729;DHT22;31439;53.512;10.206;2023-07-29T23:03:20;17.40;99.90
45729;DHT22;31439;53.512;10.206;2023-07-29T23:05:46;17.50;99.90
45729;DHT22;31439;53.512;10.206;2023-07-29T23:08:12;17.40;99.90
45729;DHT22;31439;53.512;10.206;2023-07-29T23:10:38;17.40;99.90
45729;DHT22;31439;53.512;10.206;2023-07-29T23:13:04;17.40;99.90
45729;DHT22;31439;53.512;10.206;2023-07-29T23:15:34;17.50;99.90
45729;DHT22;31439;53.512;10.206;2023-07-29T23:18:00;17.40;99.90
45729;DHT22;31439;53.512;10.206;2023-07-29T23:20:26;17.40;99.90
45729;DHT22;31439;53.512;10.206;2023-07-29T23:22:52;17.40;99.90
45729;DHT22;31439;53.512;10.206;2023-07-29T23:25:17;17.40;99.90
45729;DHT22;31439;53.512;10.206;2023-07-29T23:27:43;17.40;99.90
45729;DHT22;31439;53.512;10.206;2023-07-29T23:30:09;17.40;99.90
45729;DHT22;31439;53.512;10.206;2023-07-29T23:32:34;17.40;99.90
45729;DHT22;31439;53.512;10.206;2023-07-29T23:35:00;17.40;99.90
45729;DHT22;31439;53.512;10.206;2023-07-29T23:37:25;17.40;99.90
45729;DHT22;31439;53.512;10.206;2023-07-29T23:39:51;17.40;99.90
45729;DHT22;31439;53.512;10.206;2023-07-29T23:42:17;17.30;99.90